createdAt,value
2019-05-17T00:01:26.894Z,15.10
2019-05-17T00:03:58.117Z,14.57
2019-05-17T00:06:28.832Z,14.50
2019-05-17T00:08:59.970Z,14.73
2019-05-17T00:11:32.429Z,15.07
2019-05-17T00:14:06.334Z,14.60
2019-05-17T00:16:37.614Z,16.20
2019-05-17T00:19:08.309Z,16.10
2019-05-17T00:21:39.398Z,15.87
2019-05-17T00:24:10.398Z,15.60
2019-05-17T00:26:41.024Z,15.60
2019-05-17T00:29:12.108Z,16.67
2019-05-17T00:31:46.140Z,15.97
2019-05-17T00:34:16.972Z,16.70
2019-05-17T00:36:48.411Z,15.87
2019-05-17T00:39:19.017Z,17.33
2019-05-17T00:41:51.126Z,16.33
2019-05-17T00:44:22.104Z,15.80
2019-05-17T00:46:52.731Z,17.13
2019-05-17T00:49:23.568Z,16.33
2019-05-17T00:51:56.742Z,16.33
2019-05-17T00:54:28.203Z,16.87
2019-05-17T00:56:59.789Z,16.67
2019-05-17T00:59:30.448Z,18.00
2019-05-17T01:02:03.686Z,17.43
2019-05-17T01:04:36.907Z,16.43
2019-05-17T01:07:07.191Z,17.60
2019-05-17T01:09:37.815Z,17.70
2019-05-17T01:12:08.903Z,19.60
2019-05-17T01:14:39.513Z,21.40
2019-05-17T01:17:10.537Z,18.83
2019-05-17T01:19:43.002Z,17.97
2019-05-17T01:22:13.646Z,18.03
2019-05-17T01:24:46.366Z,17.13
2019-05-17T01:27:20.102Z,18.07
2019-05-17T01:29:51.055Z,16.97
2019-05-17T01:32:22.245Z,17.93
2019-05-17T01:34:52.938Z,18.90
2019-05-17T01:37:23.546Z,18.63
2019-05-17T01:39:54.358Z,18.57
2019-05-17T01:42:26.487Z,19.13
2019-05-17T01:44:59.553Z,19.30
2019-05-17T01:47:30.149Z,19.57
2019-05-17T01:50:01.138Z,18.03
2019-05-17T01:52:31.870Z,19.60
2019-05-17T01:55:02.468Z,20.23
2019-05-17T01:57:36.753Z,20.00
2019-05-17T02:00:09.086Z,19.47
2019-05-17T02:02:44.372Z,18.87
2019-05-17T02:05:17.459Z,19.23
2019-05-17T02:07:48.213Z,18.87
2019-05-17T02:10:20.362Z,20.20
2019-05-17T02:12:51.152Z,19.77
2019-05-17T02:15:22.341Z,18.97
2019-05-17T02:17:53.793Z,18.40
2019-05-17T02:20:24.777Z,18.70
2019-05-17T02:22:56.584Z,19.03
2019-05-17T02:25:27.332Z,20.07
2019-05-17T02:27:58.417Z,19.53
2019-05-17T02:30:29.023Z,19.07
2019-05-17T02:33:03.455Z,19.27
2019-05-17T02:35:33.670Z,18.93
2019-05-17T02:38:04.839Z,19.60
2019-05-17T02:40:35.465Z,19.73
2019-05-17T02:43:06.568Z,20.40
2019-05-17T02:45:37.184Z,18.73
2019-05-17T02:48:07.788Z,20.10
2019-05-17T02:50:38.456Z,19.37
2019-05-17T02:53:13.238Z,18.40
2019-05-17T02:55:43.679Z,19.70
2019-05-17T02:58:14.820Z,19.77
2019-05-17T03:00:45.429Z,18.87
2019-05-17T03:03:16.062Z,18.27
2019-05-17T03:05:46.730Z,18.40
2019-05-17T03:08:17.799Z,17.37
2019-05-17T03:10:48.832Z,16.83
2019-05-17T03:13:23.167Z,16.53
2019-05-17T03:15:52.799Z,15.77
2019-05-17T03:18:23.613Z,16.60
2019-05-17T03:20:54.259Z,15.63
2019-05-17T03:23:24.860Z,15.90
2019-05-17T03:25:55.586Z,15.93
2019-05-17T03:28:26.806Z,15.37
2019-05-17T03:30:58.855Z,15.93
2019-05-17T03:33:35.868Z,15.60
2019-05-17T03:36:06.251Z,15.47
2019-05-17T03:38:35.841Z,16.57
2019-05-17T03:41:17.731Z,14.97
2019-05-17T03:43:41.225Z,15.70
2019-05-17T03:46:13.835Z,14.33
2019-05-17T03:48:44.718Z,15.17
2019-05-17T03:51:15.377Z,15.33
2019-05-17T03:53:48.117Z,15.97
2019-05-17T03:56:18.698Z,15.90
2019-05-17T03:58:52.825Z,16.10
2019-05-17T04:01:23.175Z,15.13
2019-05-17T04:03:54.155Z,15.37
2019-05-17T04:06:24.703Z,15.90
2019-05-17T04:21:55.636Z,15.97
2019-05-17T04:24:26.724Z,15.43
2019-05-17T04:26:58.161Z,15.17
2019-05-17T04:29:33.193Z,14.63
2019-05-17T04:32:04.334Z,15.70
2019-05-17T04:34:35.245Z,15.80
2019-05-17T04:37:06.002Z,15.13
2019-05-17T04:39:36.688Z,14.63
2019-05-17T04:42:07.406Z,16.27
2019-05-17T04:44:38.053Z,14.13
2019-05-17T04:47:08.767Z,15.40
2019-05-17T04:49:43.730Z,14.10
2019-05-17T04:52:14.240Z,14.07
2019-05-17T04:54:44.861Z,14.23
2019-05-17T04:57:15.626Z,15.10
2019-05-17T04:59:46.330Z,14.37
2019-05-17T05:02:19.733Z,14.43
2019-05-17T05:04:53.178Z,13.10
2019-05-17T05:07:23.000Z,13.37
2019-05-17T05:09:53.685Z,13.40
2019-05-17T05:12:24.855Z,14.40
2019-05-17T05:14:55.443Z,13.50
2019-05-17T05:17:26.110Z,13.40
2019-05-17T05:19:57.138Z,13.80
2019-05-17T05:22:27.858Z,13.63
2019-05-17T05:24:58.492Z,13.63
2019-05-17T05:27:31.520Z,13.70
2019-05-17T05:30:03.072Z,13.30
2019-05-17T05:32:33.964Z,14.83
2019-05-17T05:35:07.344Z,14.33
2019-05-17T05:37:38.005Z,14.10
2019-05-17T05:40:08.843Z,14.43
2019-05-17T05:42:42.273Z,14.43
2019-05-17T05:45:12.855Z,14.43
2019-05-17T05:47:47.459Z,14.47
2019-05-17T05:50:18.337Z,14.60
2019-05-17T05:52:49.071Z,13.70
2019-05-17T05:55:23.144Z,13.83
2019-05-17T05:57:53.161Z,13.80
2019-05-17T06:00:23.797Z,14.03
2019-05-17T06:02:54.457Z,13.57
2019-05-17T06:05:25.100Z,13.53
2019-05-17T06:07:57.215Z,12.27
2019-05-17T06:10:27.876Z,13.20
2019-05-17T06:12:59.124Z,13.57
2019-05-17T06:15:31.932Z,13.43
2019-05-17T06:18:02.912Z,13.40
2019-05-17T06:20:34.106Z,13.10
2019-05-17T06:23:04.825Z,12.90
2019-05-17T06:52:22.599Z,14.03
2019-05-17T06:54:53.883Z,13.50
2019-05-17T06:57:25.496Z,13.27
2019-05-17T06:59:56.299Z,12.70
2019-05-17T07:02:27.013Z,11.80
2019-05-17T07:05:01.332Z,13.27
2019-05-17T07:07:31.645Z,12.40
2019-05-17T07:10:02.317Z,13.03
2019-05-17T07:12:32.975Z,12.57
2019-05-17T07:15:03.586Z,12.60
2019-05-17T07:17:34.236Z,12.63
2019-05-17T07:20:05.032Z,13.00
2019-05-17T07:22:35.731Z,13.00
2019-05-17T07:25:12.160Z,12.23
2019-05-17T07:27:45.881Z,12.80
2019-05-17T07:30:16.162Z,12.20
2019-05-17T07:32:46.745Z,13.23
2019-05-17T07:35:19.604Z,12.83
2019-05-17T07:37:50.250Z,11.80
2019-05-17T07:40:20.974Z,12.93
2019-05-17T07:42:51.672Z,12.57
2019-05-17T07:45:22.608Z,12.00
2019-05-17T07:47:53.278Z,11.77
2019-05-17T07:50:23.983Z,13.10
2019-05-17T07:52:54.611Z,11.50
2019-05-17T07:55:25.256Z,11.83
2019-05-17T07:57:55.927Z,11.30
2019-05-17T08:00:26.600Z,11.13
2019-05-17T08:03:02.055Z,11.27
2019-05-17T08:05:35.517Z,11.10
2019-05-17T08:08:06.264Z,11.37
2019-05-17T08:10:37.067Z,11.17
2019-05-17T08:13:21.621Z,10.20
2019-05-17T08:15:40.118Z,11.17
2019-05-17T08:18:29.725Z,10.43
2019-05-17T08:21:02.552Z,10.83
2019-05-17T08:23:33.194Z,10.10
2019-05-17T08:26:03.777Z,10.20
2019-05-17T08:28:34.565Z,10.70
2019-05-17T08:31:05.186Z,10.80
2019-05-17T08:33:35.801Z,10.40
2019-05-17T08:36:06.558Z,9.97
2019-05-17T08:38:39.214Z,10.53
2019-05-17T08:41:10.546Z,9.63
2019-05-17T08:43:46.630Z,10.37
2019-05-17T08:46:13.868Z,9.53
2019-05-17T08:48:44.716Z,9.83
2019-05-17T08:51:15.411Z,9.80
2019-05-17T08:53:46.200Z,10.40
2019-05-17T08:56:16.928Z,9.70
2019-05-17T08:58:49.694Z,10.27
2019-05-17T09:01:19.897Z,9.00
2019-05-17T09:03:50.740Z,9.33
2019-05-17T09:06:22.158Z,10.00
2019-05-17T09:08:52.860Z,9.90
2019-05-17T09:11:23.430Z,10.20
2019-05-17T09:13:58.528Z,10.53
2019-05-17T09:16:30.559Z,10.40
2019-05-17T09:23:19.660Z,9.85
2019-05-17T09:25:52.221Z,8.88
2019-05-17T09:28:22.842Z,9.60
2019-05-17T09:30:53.589Z,9.00
2019-05-17T09:33:24.306Z,8.90
2019-05-17T09:35:56.330Z,9.40
2019-05-17T09:38:26.930Z,9.27
2019-05-17T09:40:59.970Z,9.57
2019-05-17T09:43:30.857Z,8.97
2019-05-17T09:46:01.944Z,9.50
2019-05-17T09:48:35.375Z,9.50
2019-05-17T09:51:06.007Z,9.73
2019-05-17T09:53:40.112Z,8.93
2019-05-17T09:56:10.538Z,9.30
2019-05-17T09:58:41.217Z,9.37
2019-05-17T10:01:11.877Z,9.40
2019-05-17T10:03:42.645Z,9.17
2019-05-17T10:06:13.443Z,9.20
2019-05-17T10:08:44.187Z,8.87
2019-05-17T10:11:15.473Z,8.25
2019-05-17T10:40:31.245Z,8.83
2019-05-17T10:43:02.466Z,8.13
2019-05-17T10:45:33.299Z,8.33
2019-05-17T10:48:03.941Z,7.97
2019-05-17T10:50:34.672Z,8.10
2019-05-17T10:53:05.300Z,7.60
2019-05-17T10:55:35.988Z,8.40
2019-05-17T10:58:09.684Z,8.18
2019-05-17T11:00:41.312Z,8.90
2019-05-17T11:03:12.327Z,8.10
2019-05-17T11:05:45.008Z,7.83
2019-05-17T11:08:16.149Z,8.67
2019-05-17T11:10:50.545Z,8.20
2019-05-17T11:13:21.263Z,8.03
2019-05-17T11:15:52.056Z,7.63
2019-05-17T11:18:23.252Z,8.13
2019-05-17T11:20:53.819Z,7.03
2019-05-17T11:23:25.100Z,7.75
2019-05-17T11:25:55.820Z,7.27
2019-05-17T11:28:27.114Z,7.60
2019-05-17T11:30:57.729Z,7.37
2019-05-17T11:33:29.341Z,7.50
2019-05-17T11:36:01.512Z,7.40
2019-05-17T11:38:32.230Z,7.33
2019-05-17T11:41:19.996Z,6.42
2019-05-17T11:43:35.783Z,6.62
2019-05-17T11:46:06.443Z,6.60
2019-05-17T11:48:37.203Z,6.60
2019-05-17T11:51:08.379Z,6.37
2019-05-17T11:53:39.560Z,6.55
2019-05-17T11:56:10.585Z,6.22
2019-05-17T11:58:41.322Z,6.60
2019-05-17T12:01:13.023Z,6.65
2019-05-17T12:03:44.211Z,6.40
2019-05-17T12:06:18.484Z,6.25
2019-05-17T12:08:49.209Z,5.87
2019-05-17T12:11:20.549Z,6.47
2019-05-17T12:13:53.418Z,6.30
2019-05-17T12:16:25.118Z,5.87
2019-05-17T12:18:57.625Z,5.73
2019-05-17T12:21:28.948Z,6.08
2019-05-17T12:23:59.719Z,5.83
2019-05-17T12:26:31.835Z,6.40
2019-05-17T12:29:03.068Z,6.15
2019-05-17T12:31:34.236Z,6.50
2019-05-17T12:34:05.581Z,5.70
2019-05-17T12:36:36.382Z,6.33
2019-05-17T12:39:07.915Z,6.25
2019-05-17T12:41:38.582Z,5.92
2019-05-17T12:44:09.772Z,6.75
2019-05-17T12:46:40.729Z,6.42
2019-05-17T12:49:11.577Z,6.90
2019-05-17T12:51:42.920Z,6.30
2019-05-17T12:54:14.162Z,5.75
2019-05-17T12:56:44.758Z,6.15
2019-05-17T12:59:15.464Z,6.30
2019-05-17T13:01:46.076Z,6.40
2019-05-17T13:04:16.674Z,5.70
2019-05-17T13:06:49.291Z,5.78
2019-05-17T13:09:19.942Z,6.28
2019-05-17T13:11:51.149Z,6.20
2019-05-17T13:14:21.927Z,6.53
2019-05-17T13:16:53.277Z,6.30
2019-05-17T13:19:25.425Z,6.17
2019-05-17T13:21:57.083Z,6.17
2019-05-17T13:24:28.498Z,6.90
2019-05-17T13:27:00.256Z,6.03
2019-05-17T13:29:34.609Z,6.53
2019-05-17T13:32:05.375Z,6.47
2019-05-17T13:34:36.581Z,6.40
2019-05-17T13:37:07.902Z,6.58
2019-05-17T13:39:38.679Z,6.43
2019-05-17T13:42:09.875Z,7.35
2019-05-17T13:44:41.244Z,6.85
2019-05-17T13:47:12.242Z,6.40
2019-05-17T13:49:43.461Z,7.42
2019-05-17T13:52:17.776Z,7.17
2019-05-17T13:54:50.582Z,6.87
2019-05-17T13:57:21.225Z,7.10
2019-05-17T13:59:52.584Z,6.80
2019-05-17T14:02:23.295Z,6.70
2019-05-17T14:04:54.092Z,6.95
2019-05-17T14:07:24.706Z,6.53
2019-05-17T14:09:55.374Z,7.30
2019-05-17T14:12:28.956Z,6.73
2019-05-17T14:14:59.574Z,6.67
2019-05-17T14:17:30.442Z,6.77
2019-05-17T14:20:01.306Z,8.57
2019-05-17T14:22:35.912Z,7.47
2019-05-17T14:25:06.833Z,7.30
2019-05-17T14:27:37.572Z,7.10
2019-05-17T14:30:10.034Z,6.53
2019-05-17T14:32:42.291Z,7.23
2019-05-17T14:35:13.172Z,7.40
2019-05-17T14:37:44.660Z,6.90
2019-05-17T14:40:16.735Z,6.42
2019-05-17T14:42:48.163Z,7.92
2019-05-17T14:45:19.067Z,9.78
2019-05-17T14:47:50.425Z,6.90
2019-05-17T14:50:20.921Z,6.57
2019-05-17T14:52:51.524Z,6.83
2019-05-17T14:55:22.289Z,7.13
2019-05-17T14:57:53.218Z,6.90
2019-05-17T15:00:23.970Z,8.23
2019-05-17T15:02:54.574Z,6.83
2019-05-17T15:05:25.493Z,6.93
2019-05-17T15:07:57.721Z,8.43
2019-05-17T15:10:28.347Z,7.17
2019-05-17T15:13:01.549Z,7.27
2019-05-17T15:15:31.417Z,7.00
2019-05-17T15:18:09.024Z,6.77
2019-05-17T15:20:37.829Z,7.37
2019-05-17T15:23:08.550Z,7.23
2019-05-17T15:25:39.188Z,8.00
2019-05-17T15:28:09.821Z,7.73
2019-05-17T15:30:40.596Z,7.90
2019-05-17T15:33:11.323Z,7.23
2019-05-17T15:35:42.855Z,7.40
2019-05-17T15:38:15.456Z,7.13
2019-05-17T15:40:45.847Z,7.00
2019-05-17T15:43:18.575Z,7.43
2019-05-17T15:45:49.268Z,8.50
2019-05-17T15:48:20.077Z,7.87
2019-05-17T15:50:50.681Z,7.90
2019-05-17T15:53:22.152Z,8.00
2019-05-17T15:55:52.778Z,7.93
2019-05-17T15:58:23.413Z,7.50
2019-05-17T16:00:56.677Z,7.53
2019-05-17T16:03:27.263Z,7.20
2019-05-17T16:05:57.935Z,7.60
2019-05-17T16:08:29.842Z,6.97
2019-05-17T16:11:00.690Z,7.50
2019-05-17T16:13:33.893Z,7.77
2019-05-17T16:16:04.373Z,7.47
2019-05-17T16:18:35.196Z,7.43
2019-05-17T16:21:05.971Z,8.00
2019-05-17T16:23:36.653Z,7.50
2019-05-17T16:26:08.323Z,7.87
2019-05-17T16:28:39.152Z,7.80
2019-05-17T16:31:11.739Z,7.93
2019-05-17T16:33:42.362Z,7.80
2019-05-17T16:36:13.035Z,7.73
2019-05-17T16:38:43.721Z,7.60
2019-05-17T16:41:16.509Z,7.73
2019-05-17T16:43:47.156Z,8.40
2019-05-17T16:46:17.877Z,8.50
2019-05-17T16:48:48.462Z,10.77
2019-05-17T16:51:19.123Z,8.17
2019-05-17T16:53:49.830Z,8.00
2019-05-17T16:56:20.609Z,7.93
2019-05-17T16:58:51.209Z,8.03
2019-05-17T17:01:21.948Z,8.17
2019-05-17T17:03:52.669Z,8.43
2019-05-17T17:06:23.280Z,7.53
2019-05-17T17:08:54.041Z,8.37
2019-05-17T17:11:24.726Z,8.53
2019-05-17T17:13:55.467Z,8.07
2019-05-17T17:16:26.087Z,7.83
2019-05-17T17:18:56.750Z,8.20
2019-05-17T17:21:27.483Z,8.73
2019-05-17T17:23:58.451Z,8.70
2019-05-17T17:26:29.063Z,7.93
2019-05-17T17:28:59.904Z,8.13
2019-05-17T17:31:31.071Z,8.17
2019-05-17T17:34:01.782Z,8.00
2019-05-17T17:36:32.401Z,7.70
2019-05-17T17:39:04.745Z,7.87
2019-05-17T17:41:35.422Z,8.10
2019-05-17T17:44:09.607Z,7.40
2019-05-17T17:46:40.278Z,8.13
2019-05-17T17:49:10.903Z,8.30
2019-05-17T17:51:41.569Z,7.63
2019-05-17T17:54:12.560Z,8.30
2019-05-17T17:56:43.470Z,7.60
2019-05-17T17:59:14.153Z,8.03
2019-05-17T18:01:44.910Z,7.67
2019-05-17T18:04:15.592Z,11.53
2019-05-17T18:06:46.228Z,7.43
2019-05-17T18:09:17.279Z,8.27
2019-05-17T18:11:47.989Z,7.90
2019-05-17T18:14:18.737Z,7.83
2019-05-17T18:16:49.348Z,7.87
2019-05-17T18:19:20.108Z,7.30
2019-05-17T18:21:50.927Z,7.93
2019-05-17T18:24:21.559Z,7.50
2019-05-17T18:26:52.337Z,7.87
2019-05-17T18:29:23.011Z,8.03
2019-05-17T18:31:54.060Z,8.03
2019-05-17T18:34:24.782Z,7.50
2019-05-17T18:36:55.379Z,7.20
2019-05-17T18:39:26.586Z,7.67
2019-05-17T18:41:57.187Z,8.07
2019-05-17T18:44:29.346Z,7.47
2019-05-17T18:47:00.113Z,7.97
2019-05-17T18:49:30.748Z,7.90
2019-05-17T18:52:02.456Z,8.30
2019-05-17T18:54:33.173Z,7.37
2019-05-17T18:57:03.917Z,8.07
2019-05-17T18:59:34.551Z,8.00
2019-05-17T19:02:05.227Z,7.60
2019-05-17T19:04:35.948Z,7.20
2019-05-17T19:07:06.787Z,7.90
2019-05-17T19:09:37.532Z,7.67
2019-05-17T19:12:08.275Z,6.97
2019-05-17T19:14:43.119Z,7.53
2019-05-17T19:17:11.386Z,8.43
2019-05-17T19:19:42.043Z,7.87
2019-05-17T19:22:12.790Z,8.00
2019-05-17T19:24:43.380Z,7.27
2019-05-17T19:27:14.132Z,7.73
2019-05-17T19:29:44.825Z,8.07
2019-05-17T19:32:15.454Z,7.57
2019-05-17T19:34:47.811Z,7.70
2019-05-17T19:37:19.060Z,7.13
2019-05-17T19:39:50.018Z,8.00
2019-05-17T19:42:23.167Z,8.13
2019-05-17T19:44:59.492Z,7.40
2019-05-17T19:47:29.131Z,10.87
2019-05-17T19:50:00.186Z,6.97
2019-05-17T19:52:31.356Z,7.73
2019-05-17T19:55:02.055Z,7.33
2019-05-17T19:57:32.736Z,7.27
2019-05-17T20:00:04.169Z,7.17
2019-05-17T20:02:34.789Z,7.13
2019-05-17T20:05:07.193Z,7.33
2019-05-17T20:07:39.414Z,7.17
2019-05-17T20:10:12.939Z,7.97
2019-05-17T20:12:43.787Z,6.73
2019-05-17T20:15:18.196Z,7.20
2019-05-17T20:17:48.974Z,7.07
2019-05-17T20:20:19.685Z,6.70
2019-05-17T20:22:51.826Z,7.40
2019-05-17T20:25:22.665Z,6.90
2019-05-17T20:27:53.601Z,6.60
2019-05-17T20:30:24.220Z,6.93
2019-05-17T20:32:58.034Z,7.10
2019-05-17T20:35:28.644Z,7.13
2019-05-17T20:37:59.318Z,6.13
2019-05-17T20:40:29.931Z,6.90
2019-05-17T20:43:00.561Z,6.60
2019-05-17T20:45:33.509Z,6.47
2019-05-17T20:48:03.983Z,6.80
2019-05-17T20:50:34.603Z,6.70
2019-05-17T20:53:18.000Z,6.97
2019-05-17T20:55:37.716Z,6.87
2019-05-17T20:58:08.352Z,6.97
2019-05-17T21:00:38.972Z,7.20
2019-05-17T21:03:13.638Z,6.53
2019-05-17T21:05:42.239Z,6.67
2019-05-17T21:08:12.965Z,7.27
2019-05-17T21:10:44.127Z,7.30
2019-05-17T21:13:14.816Z,7.20
2019-05-17T21:15:47.957Z,6.73
2019-05-17T21:18:18.326Z,6.93
2019-05-17T21:20:48.948Z,6.90
2019-05-17T21:23:19.636Z,6.90
2019-05-17T21:25:50.690Z,7.00
2019-05-17T21:28:21.827Z,6.40
2019-05-17T21:30:52.879Z,7.33
2019-05-17T21:33:23.686Z,7.10
2019-05-17T21:35:54.337Z,6.47
2019-05-17T21:38:25.982Z,6.67
2019-05-17T21:40:56.629Z,6.50
2019-05-17T21:43:27.314Z,7.03
2019-05-17T21:46:04.477Z,6.50
2019-05-17T21:48:35.156Z,6.13
2019-05-17T21:51:05.801Z,6.90
2019-05-17T21:53:36.534Z,7.10
2019-05-17T21:56:07.495Z,7.00
2019-05-17T21:58:38.614Z,7.00
2019-05-17T22:01:15.101Z,6.87
2019-05-17T22:03:45.789Z,6.53
2019-05-17T22:06:16.739Z,6.57
2019-05-17T22:08:48.072Z,6.43
2019-05-17T22:11:18.719Z,6.90
2019-05-17T22:13:49.300Z,6.33
2019-05-17T22:16:20.422Z,7.17
2019-05-17T22:18:51.188Z,6.83
2019-05-17T22:21:21.811Z,6.90
2019-05-17T22:23:53.039Z,6.50
2019-05-17T22:26:23.644Z,6.47
2019-05-17T22:28:54.791Z,6.27
2019-05-17T22:31:25.793Z,7.17
2019-05-17T22:33:56.915Z,6.27
2019-05-17T22:36:27.611Z,7.03
2019-05-17T22:38:58.748Z,6.57
2019-05-17T22:41:29.586Z,6.60
2019-05-17T22:44:04.563Z,6.70
2019-05-17T22:46:36.509Z,6.40
2019-05-17T22:49:07.416Z,6.60
2019-05-17T22:51:38.108Z,6.77
2019-05-17T22:54:08.749Z,6.80
2019-05-17T22:56:41.009Z,6.67
2019-05-17T22:59:11.614Z,6.47
2019-05-17T23:01:42.627Z,5.60
2019-05-17T23:04:14.689Z,6.33
2019-05-17T23:06:45.521Z,6.53
2019-05-17T23:09:16.323Z,6.20
2019-05-17T23:11:48.525Z,6.83
2019-05-17T23:14:19.980Z,6.33
2019-05-17T23:16:52.163Z,5.97
2019-05-17T23:19:23.039Z,6.10
2019-05-17T23:21:55.519Z,6.53
2019-05-17T23:24:26.762Z,6.87
2019-05-17T23:26:57.366Z,6.07
2019-05-17T23:29:28.018Z,6.17
2019-05-17T23:31:58.700Z,6.00
2019-05-17T23:34:30.818Z,5.87
2019-05-17T23:37:01.413Z,6.20
2019-05-17T23:39:32.041Z,6.27
2019-05-17T23:42:02.624Z,6.17
2019-05-17T23:44:33.789Z,6.03
2019-05-17T23:47:07.142Z,6.30
2019-05-17T23:49:38.511Z,5.80
2019-05-17T23:52:10.724Z,6.10
2019-05-17T23:54:41.412Z,6.07
2019-05-17T23:57:12.132Z,6.27
2019-05-17T23:59:43.246Z,5.97
